createdAt,value
2023-02-06T00:01:06.882Z,88.53006
2023-02-06T00:06:08.462Z,86.88714
2023-02-06T00:11:10.082Z,84.78724
2023-02-06T00:16:11.556Z,84.13544
2023-02-06T00:21:13.154Z,87.23907
2023-02-06T00:26:14.968Z,86.33476
2023-02-06T00:31:16.788Z,88.95081
2023-02-06T00:36:18.403Z,86.97189
2023-02-06T00:41:19.891Z,82.53979
2023-02-06T00:46:21.409Z,83.97242
2023-02-06T00:51:22.983Z,89.591
2023-02-06T00:56:24.686Z,85.46652
2023-02-06T01:01:26.710Z,85.9672
2023-02-06T01:06:28.213Z,84.22824
2023-02-06T01:11:29.803Z,85.21665
2023-02-06T01:16:31.445Z,84.68309
2023-02-06T01:21:33.012Z,85.04082
2023-02-06T01:26:34.607Z,81.75091
2023-02-06T01:31:36.291Z,87.10741
2023-02-06T01:36:37.785Z,84.05829
2023-02-06T01:41:39.239Z,87.38163
2023-02-06T01:46:40.790Z,82.68677
2023-02-06T01:51:42.302Z,85.99184
2023-02-06T01:56:44.109Z,85.57656
2023-02-06T02:01:45.925Z,86.67082
2023-02-06T02:06:47.413Z,83.87908
2023-02-06T02:11:49.274Z,89.51345
2023-02-06T02:16:51.036Z,88.71701
2023-02-06T02:21:52.805Z,92.05032
2023-02-06T02:26:54.414Z,85.82201
2023-02-06T02:31:56.483Z,88.49859
2023-02-06T02:36:58.082Z,86.3216
2023-02-06T02:41:59.586Z,89.56255
2023-02-06T02:47:01.578Z,90.80307
2023-02-06T02:52:02.982Z,90.52835
2023-02-06T02:57:04.472Z,94.21961
2023-02-06T03:02:06.228Z,98.58414
2023-02-06T03:07:07.702Z,92.79033
2023-02-06T03:12:09.309Z,92.63788
2023-02-06T03:17:10.866Z,91.9956
2023-02-06T03:22:12.322Z,91.58687
2023-02-06T03:27:14.140Z,92.11937
2023-02-06T03:32:16.078Z,94.89765
2023-02-06T03:37:17.931Z,93.33048
2023-02-06T03:42:20.154Z,100
2023-02-06T03:47:22.109Z,97.55903
2023-02-06T03:52:23.934Z,94.7742
2023-02-06T03:57:25.704Z,88.72799
2023-02-06T04:02:27.717Z,92.05784
2023-02-06T04:07:29.179Z,92.31075
2023-02-06T04:12:30.988Z,96.27683
2023-02-06T04:17:46.706Z,95.49385
2023-02-06T04:22:56.173Z,91.74957
2023-02-06T04:27:58.383Z,94.8955
2023-02-06T04:33:00.600Z,95.624
2023-02-06T04:38:02.256Z,90.59336
2023-02-06T04:43:04.110Z,99.60998
2023-02-06T04:48:06.003Z,96.6723
2023-02-06T04:53:07.788Z,89.94763
2023-02-06T04:58:09.487Z,88.75792
2023-02-06T05:03:11.187Z,89.58698
2023-02-06T05:08:12.746Z,87.27796
2023-02-06T05:13:14.314Z,88.76862
2023-02-06T05:18:15.940Z,81.9066
2023-02-06T05:23:17.428Z,83.23746
2023-02-06T05:28:19.389Z,78.53429
2023-02-06T05:33:21.894Z,78.87823
2023-02-06T05:38:23.645Z,74.017
2023-02-06T05:43:25.638Z,75.02385
2023-02-06T05:48:27.757Z,76.16348
2023-02-06T05:53:29.755Z,73.10401
2023-02-06T05:58:31.583Z,69.78202
2023-02-06T06:03:33.550Z,73.36718
2023-02-06T06:08:35.089Z,70.98208
2023-02-06T06:13:36.785Z,65.58304
2023-02-06T06:18:38.239Z,65.07407
2023-02-06T06:23:39.884Z,64.09088
2023-02-06T06:28:41.582Z,60.39742
2023-02-06T06:33:43.798Z,60.25693
2023-02-06T06:38:45.447Z,58.50428
2023-02-06T06:43:47.418Z,60.15988
2023-02-06T06:48:49.111Z,60.21853
2023-02-06T06:53:51.057Z,57.90821
2023-02-06T06:58:52.870Z,52.69678
2023-02-06T07:03:54.889Z,57.45195
2023-02-06T07:08:56.556Z,52.87033
2023-02-06T07:13:58.412Z,53.33273
2023-02-06T07:19:00.388Z,50.8447
2023-02-06T07:24:02.402Z,51.33448
2023-02-06T07:29:03.891Z,50.84073
2023-02-06T07:34:05.858Z,47.19831
2023-02-06T07:39:07.302Z,47.89138
2023-02-06T07:44:08.999Z,47.04806
2023-02-06T07:49:10.509Z,46.47181
2023-02-06T07:54:12.056Z,44.68557
2023-02-06T07:59:13.650Z,42.0625
2023-02-06T08:04:15.615Z,41.85627
2023-02-06T08:09:17.141Z,43.60487
2023-02-06T08:14:18.862Z,39.91438
2023-02-06T08:19:20.378Z,40.29115
2023-02-06T08:24:21.945Z,37.05042
2023-02-06T08:29:23.540Z,37.23905
2023-02-06T08:34:26.305Z,36.56855
2023-02-06T08:39:27.887Z,36.49156
2023-02-06T08:44:29.615Z,37.70218
2023-02-06T08:49:31.046Z,39.46377
2023-02-06T08:54:35.530Z,36.06978
2023-02-06T08:59:38.316Z,35.32462
2023-02-06T09:04:39.989Z,36.03127
2023-02-06T09:09:41.551Z,33.38266
2023-02-06T09:14:43.137Z,36.75514
2023-02-06T09:19:44.594Z,34.82413
2023-02-06T09:24:46.456Z,32.9147
2023-02-06T09:29:48.542Z,32.31079
2023-02-06T09:34:50.221Z,31.93964
2023-02-06T09:39:51.670Z,31.86249
2023-02-06T09:44:53.354Z,32.21129
2023-02-06T09:49:54.838Z,31.51318
2023-02-06T09:54:56.359Z,31.97915
2023-02-06T09:59:57.933Z,32.10201
2023-02-06T10:04:59.715Z,32.43541
2023-02-06T10:10:01.206Z,32.51803
2023-02-06T10:15:02.687Z,28.81359
2023-02-06T10:20:04.281Z,30.8402
2023-02-06T10:25:06.526Z,29.50827
2023-02-06T10:30:08.442Z,28.78314
2023-02-06T10:35:10.125Z,28.83211
2023-02-06T10:40:11.954Z,28.40264
2023-02-06T10:45:20.313Z,28.2367
2023-02-06T10:50:22.032Z,27.01388
2023-02-06T10:55:23.957Z,27.43564
2023-02-06T11:00:25.921Z,26.45777
2023-02-06T11:05:27.988Z,25.72447
2023-02-06T11:10:30.421Z,26.58101
2023-02-06T11:15:32.470Z,25.35621
2023-02-06T11:20:34.743Z,25.64755
2023-02-06T11:25:37.158Z,27.73394
2023-02-06T11:30:39.789Z,28.49201
2023-02-06T11:35:42.329Z,30.62006
2023-02-06T11:40:44.207Z,29.97444
2023-02-06T11:45:46.182Z,28.67379
2023-02-06T11:50:48.030Z,29.04507
2023-02-06T11:55:50.145Z,27.22129
2023-02-06T12:00:52.185Z,29.41536
2023-02-06T12:05:54.226Z,28.17181
2023-02-06T12:10:55.973Z,28.46703
2023-02-06T12:15:57.867Z,29.45414
2023-02-06T12:20:59.908Z,28.29095
2023-02-06T12:26:01.810Z,27.7581
2023-02-06T12:31:03.947Z,28.54894
2023-02-06T12:36:05.968Z,30.24983
2023-02-06T12:41:07.809Z,31.14048
2023-02-06T12:46:10.777Z,31.47886
2023-02-06T12:51:12.281Z,32.10152
2023-02-06T12:56:13.853Z,29.75088
2023-02-06T13:01:27.950Z,29.31507
2023-02-06T13:06:33.731Z,31.64783
2023-02-06T13:11:35.439Z,31.19033
2023-02-06T13:16:37.015Z,29.55073
2023-02-06T13:21:38.641Z,31.35826
2023-02-06T13:26:40.344Z,32.24446
2023-02-06T13:31:41.940Z,31.99624
2023-02-06T13:36:43.711Z,31.67733
2023-02-06T13:41:45.190Z,32.82115
2023-02-06T13:46:46.693Z,33.02411
2023-02-06T13:51:48.268Z,31.02579
2023-02-06T13:56:49.778Z,33.61586
2023-02-06T14:01:51.343Z,32.15612
2023-02-06T14:06:53.050Z,31.79285
2023-02-06T14:11:54.556Z,31.68098
2023-02-06T14:16:56.578Z,30.40564
2023-02-06T14:21:58.275Z,29.01113
2023-02-06T14:27:00.265Z,28.43583
2023-02-06T14:32:01.933Z,30.26125
2023-02-06T14:37:03.684Z,32.06955
2023-02-06T14:42:05.173Z,32.12603
2023-02-06T14:47:06.910Z,30.49612
2023-02-06T14:52:08.406Z,31.09525
2023-02-06T14:57:09.856Z,31.93294
2023-02-06T15:02:11.356Z,32.29555
2023-02-06T15:07:13.021Z,32.83411
2023-02-06T15:12:14.481Z,32.70366
2023-02-06T15:17:16.247Z,32.1843
2023-02-06T15:22:17.827Z,30.25757
2023-02-06T15:27:19.408Z,30.07879
2023-02-06T15:32:21.096Z,31.37752
2023-02-06T15:37:22.770Z,30.77263
2023-02-06T15:42:24.209Z,30.49179
2023-02-06T15:47:26.129Z,32.43358
2023-02-06T15:52:27.683Z,31.78232
2023-02-06T15:57:29.376Z,32.40412
2023-02-06T16:02:31.491Z,32.39647
2023-02-06T16:07:33.617Z,32.31565
2023-02-06T16:12:36.667Z,33.23088
2023-02-06T16:17:39.690Z,34.63813
2023-02-06T16:22:41.469Z,33.00255
2023-02-06T16:27:43.030Z,34.65845
2023-02-06T16:32:44.528Z,33.73016
2023-02-06T16:37:46.152Z,33.09665
2023-02-06T16:42:47.951Z,34.04193
2023-02-06T16:47:49.940Z,32.88361
2023-02-06T16:52:51.714Z,34.52325
2023-02-06T16:57:53.575Z,33.73353
2023-02-06T17:02:55.507Z,32.64253
2023-02-06T17:07:57.554Z,33.3926
2023-02-06T17:12:59.369Z,33.78906
2023-02-06T17:18:01.138Z,33.83241
2023-02-06T17:23:02.916Z,35.3393
2023-02-06T17:28:04.716Z,37.33921
2023-02-06T17:33:06.559Z,40.48846
2023-02-06T17:38:08.729Z,42.39636
2023-02-06T17:43:10.197Z,43.16748
2023-02-06T17:48:11.915Z,43.62398
2023-02-06T17:53:13.383Z,43.12272
2023-02-06T17:58:15.037Z,43.80913
2023-02-06T18:03:16.861Z,44.21805
2023-02-06T18:08:18.528Z,44.40834
2023-02-06T18:13:19.981Z,44.4551
2023-02-06T18:18:21.672Z,45.27294
2023-02-06T18:23:23.475Z,46.01382
2023-02-06T18:28:25.171Z,45.42412
2023-02-06T18:33:26.966Z,45.46117
2023-02-06T18:38:29.015Z,47.18784
2023-02-06T18:43:30.772Z,46.29404
2023-02-06T18:48:32.498Z,47.12542
2023-02-06T18:53:34.353Z,46.75286
2023-02-06T18:58:36.137Z,45.93231
2023-02-06T19:03:38.267Z,45.25772
2023-02-06T19:08:43.548Z,47.13315
2023-02-06T19:13:46.533Z,46.98736
2023-02-06T19:18:48.320Z,46.30105
2023-02-06T19:23:50.216Z,45.93285
2023-02-06T19:28:51.985Z,47.40987
2023-02-06T19:33:54.074Z,48.06411
2023-02-06T19:38:56.470Z,48.56196
2023-02-06T19:43:58.493Z,49.96684
2023-02-06T19:49:00.498Z,50.17383
2023-02-06T19:54:02.380Z,50.89823
2023-02-06T19:59:04.143Z,52.28985
2023-02-06T20:04:06.067Z,53.18812
2023-02-06T20:09:08.008Z,54.3772
2023-02-06T20:14:09.784Z,53.42599
2023-02-06T20:19:11.796Z,53.63605
2023-02-06T20:24:13.222Z,53.84775
2023-02-06T20:29:14.681Z,57.061
2023-02-06T20:34:16.368Z,57.53834
2023-02-06T20:39:18.112Z,57.20203
2023-02-06T20:44:19.597Z,59.14568
2023-02-06T20:49:21.143Z,59.65974
2023-02-06T20:54:22.864Z,60.32707
2023-02-06T20:59:24.466Z,59.70784
2023-02-06T21:04:26.843Z,60.49516
2023-02-06T21:09:29.174Z,59.02381
2023-02-06T21:14:31.075Z,59.25197
2023-02-06T21:19:32.940Z,59.49734
2023-02-06T21:24:34.478Z,61.0647
2023-02-06T21:29:36.267Z,60.80322
2023-02-06T21:34:38.051Z,62.2333
2023-02-06T21:39:40.422Z,61.9356
2023-02-06T21:44:42.427Z,63.42743
2023-02-06T21:49:44.223Z,62.3499
2023-02-06T21:54:46.126Z,64.24155
2023-02-06T21:59:47.848Z,63.83684
2023-02-06T22:04:49.755Z,64.34725
2023-02-06T22:09:52.778Z,64.57327
2023-02-06T22:14:54.466Z,66.7119
2023-02-06T22:19:56.026Z,67.39214
2023-02-06T22:24:57.832Z,72.44596
2023-02-06T22:29:59.697Z,68.00113
2023-02-06T22:35:01.570Z,71.30186
2023-02-06T22:40:03.552Z,72.85181
2023-02-06T22:45:05.366Z,74.34679
2023-02-06T22:50:07.366Z,75.14538
2023-02-06T22:55:09.261Z,75.32889
2023-02-06T23:00:11.019Z,76.22842
2023-02-06T23:05:13.046Z,79.16306
2023-02-06T23:10:14.665Z,81.096
2023-02-06T23:15:16.128Z,82.62361
2023-02-06T23:20:17.662Z,76.4153
2023-02-06T23:25:19.115Z,75.46379
2023-02-06T23:30:20.592Z,77.10652
2023-02-06T23:35:22.158Z,75.98586
2023-02-06T23:40:23.989Z,75.39152
2023-02-06T23:45:25.657Z,75.4397
2023-02-06T23:50:27.502Z,74.80769
2023-02-06T23:55:28.970Z,80.35814
